Time;durP1;ratioP1;P1;durP2;ratioP2;P2;SDS_P1;SDS_P2;PMS_P1;PMS_P2;Temp;Humidity;BMP_temperature;BMP_pressure;BME280_temperature;BME280_humidity;BME280_pressure;Samples;Min_cycle;Max_cycle;Signal;HPM_P1;HPM_P2
2023/08/22 00:00:09;;;;;;;7.22;5.22;;;18.30;99.90;;;;;;5025375;28;20116;-67
2023/08/22 00:02:34;;;;;;;12.32;5.22;;;18.30;99.90;;;;;;5027246;28;20088;-67
2023/08/22 00:05:00;;;;;;;6.45;4.82;;;18.30;99.90;;;;;;5031046;28;20049;-67
2023/08/22 00:07:26;;;;;;;6.78;4.70;;;18.30;99.90;;;;;;5009164;28;20045;-67
2023/08/22 00:09:51;;;;;;;7.68;5.03;;;18.30;99.90;;;;;;5030635;28;20068;-67
2023/08/22 00:12:18;;;;;;;7.68;4.82;;;18.30;99.90;;;;;;5031185;28;20514;-67
2023/08/22 00:14:44;;;;;;;8.25;5.10;;;18.30;99.90;;;;;;5022535;28;20187;-67
2023/08/22 00:17:10;;;;;;;9.48;5.10;;;18.30;99.90;;;;;;5006235;28;20037;-67
2023/08/22 00:19:38;;;;;;;6.13;4.70;;;18.30;99.90;;;;;;5012636;28;20482;-67
2023/08/22 00:22:04;;;;;;;9.13;5.68;;;18.30;99.90;;;;;;5031451;28;20392;-67
2023/08/22 00:24:31;;;;;;;7.43;5.65;;;18.10;99.90;;;;;;5019193;28;20033;-67
2023/08/22 00:26:57;;;;;;;10.50;5.32;;;18.10;99.90;;;;;;5012604;28;20585;-67
2023/08/22 00:29:23;;;;;;;9.75;4.88;;;18.10;99.90;;;;;;5030814;28;20037;-68
2023/08/22 00:31:48;;;;;;;9.45;5.15;;;18.10;99.90;;;;;;5027084;28;20091;-67
2023/08/22 00:34:14;;;;;;;11.70;6.28;;;18.00;99.90;;;;;;5015456;28;20041;-67
2023/08/22 00:36:40;;;;;;;11.57;5.40;;;17.90;99.90;;;;;;5016569;28;20064;-68
2023/08/22 00:39:05;;;;;;;10.10;5.85;;;17.80;99.90;;;;;;5013172;28;20041;-67
2023/08/22 00:41:32;;;;;;;9.90;6.70;;;17.70;99.90;;;;;;5024547;28;20038;-67
2023/08/22 00:43:58;;;;;;;10.88;6.82;;;17.60;99.90;;;;;;5016647;28;20104;-68
2023/08/22 00:46:26;;;;;;;10.43;6.40;;;17.70;99.90;;;;;;5034247;28;20826;-68
2023/08/22 00:48:52;;;;;;;10.25;6.80;;;17.70;99.90;;;;;;5026704;28;20113;-67
2023/08/22 00:51:18;;;;;;;10.70;7.35;;;17.80;99.90;;;;;;5004034;28;20117;-67
2023/08/22 00:53:44;;;;;;;7.63;6.00;;;17.80;99.90;;;;;;5034246;28;20432;-68
2023/08/22 00:56:10;;;;;;;11.30;7.00;;;17.80;99.90;;;;;;5012750;28;20082;-66
2023/08/22 00:58:37;;;;;;;12.15;6.28;;;17.80;99.90;;;;;;5024746;28;20038;-67
2023/08/22 01:01:03;;;;;;;9.23;6.35;;;17.80;99.90;;;;;;5033897;28;20037;-68
2023/08/22 01:03:29;;;;;;;10.43;6.35;;;17.80;99.90;;;;;;5034137;28;20033;-67
2023/08/22 01:06:15;;;;;;;12.00;6.43;;;17.80;99.90;;;;;;5007527;28;20132;-67
2023/08/22 01:08:48;;;;;;;15.45;8.95;;;17.80;99.90;;;;;;5014404;28;20042;-68
2023/08/22 01:11:37;;;;;;;10.85;7.95;;;17.80;99.90;;;;;;5034362;28;20053;-68
2023/08/22 01:14:07;;;;;;;12.65;8.38;;;17.80;99.90;;;;;;5027347;28;20076;-67
2023/08/22 01:16:33;;;;;;;14.90;9.40;;;17.70;99.90;;;;;;5033060;28;20029;-67
2023/08/22 01:19:01;;;;;;;14.10;8.98;;;17.60;99.90;;;;;;5015650;28;20479;-66
2023/08/22 01:21:27;;;;;;;16.52;9.15;;;17.70;99.90;;;;;;5010366;28;20073;-67
2023/08/22 01:23:53;;;;;;;13.55;9.80;;;17.70;99.90;;;;;;5014140;28;20041;-67
2023/08/22 01:26:18;;;;;;;14.80;10.15;;;17.70;99.90;;;;;;5041863;28;20124;-67
2023/08/22 01:28:53;;;;;;;16.38;9.90;;;17.80;99.90;;;;;;5015919;28;20048;-67
2023/08/22 01:31:33;;;;;;;13.38;9.73;;;17.90;99.90;;;;;;5024475;28;20130;-67
2023/08/22 01:34:11;;;;;;;10.95;8.10;;;17.90;99.90;;;;;;5027871;28;20041;-67
2023/08/22 01:36:37;;;;;;;8.20;6.85;;;17.90;99.90;;;;;;5033177;28;20072;-67
2023/08/22 01:39:07;;;;;;;10.38;6.95;;;17.80;99.90;;;;;;5020736;28;20072;-67
2023/08/22 01:41:34;;;;;;;8.18;6.53;;;17.80;99.90;;;;;;5022761;28;20523;-67
2023/08/22 01:44:01;;;;;;;10.52;6.70;;;17.80;99.90;;;;;;5033379;28;20091;-68
2023/08/22 01:46:27;;;;;;;13.82;8.13;;;17.80;99.90;;;;;;5028042;28;20056;-68
2023/08/22 01:48:52;;;;;;;10.43;7.90;;;17.70;99.90;;;;;;5016850;28;20045;-68
2023/08/22 01:51:18;;;;;;;12.48;8.10;;;17.70;99.90;;;;;;5039043;28;20029;-67
2023/08/22 01:53:43;;;;;;;12.13;7.53;;;17.80;99.90;;;;;;5033370;28;20492;-68
2023/08/22 01:56:09;;;;;;;11.63;8.50;;;17.80;99.90;;;;;;5004374;28;20033;-67
2023/08/22 01:58:35;;;;;;;15.38;7.65;;;17.70;99.90;;;;;;5031543;28;20034;-68
2023/08/22 02:01:08;;;;;;;9.25;7.57;;;17.70;99.90;;;;;;5015633;28;20033;-67
2023/08/22 02:03:34;;;;;;;11.90;7.30;;;17.70;99.90;;;;;;5005231;28;20543;-68
2023/08/22 02:06:00;;;;;;;10.52;6.85;;;17.60;99.90;;;;;;5011717;28;20120;-67
2023/08/22 02:08:25;;;;;;;7.55;5.82;;;17.70;99.90;;;;;;5032614;28;20373;-67
2023/08/22 02:10:51;;;;;;;9.30;5.78;;;17.70;99.90;;;;;;5033302;28;20080;-68
2023/08/22 02:13:16;;;;;;;9.30;6.03;;;17.60;99.90;;;;;;5017963;28;20037;-67
2023/08/22 02:15:42;;;;;;;7.45;6.13;;;17.50;99.90;;;;;;5029845;28;20128;-67
2023/08/22 02:18:08;;;;;;;8.95;6.70;;;17.50;99.90;;;;;;5014563;28;20156;-67
2023/08/22 02:20:33;;;;;;;9.27;7.35;;;17.50;99.90;;;;;;5023471;28;20045;-67
2023/08/22 02:23:01;;;;;;;13.45;8.00;;;17.50;99.90;;;;;;5031689;28;20049;-67
2023/08/22 02:25:27;;;;;;;10.45;7.70;;;17.50;99.90;;;;;;5032538;28;20077;-67
2023/08/22 02:27:52;;;;;;;10.07;8.40;;;17.40;99.90;;;;;;5023524;28;20142;-67
2023/08/22 02:30:18;;;;;;;15.55;11.60;;;17.40;99.90;;;;;;5024699;28;20403;-68
2023/08/22 02:32:44;;;;;;;14.52;11.68;;;17.40;99.90;;;;;;5020103;28;20099;-67
2023/08/22 02:35:09;;;;;;;16.92;10.38;;;17.40;99.90;;;;;;5015113;28;20053;-67
2023/08/22 02:37:35;;;;;;;17.95;10.77;;;17.40;99.90;;;;;;5021768;28;20411;-67
2023/08/22 02:40:01;;;;;;;16.27;11.00;;;17.40;99.90;;;;;;5006588;28;20041;-67
2023/08/22 02:42:27;;;;;;;16.42;10.60;;;17.40;99.90;;;;;;5014701;28;20045;-68
2023/08/22 02:44:52;;;;;;;15.43;10.68;;;17.30;99.90;;;;;;5026079;28;20096;-68
2023/08/22 02:47:19;;;;;;;12.80;9.63;;;17.40;99.90;;;;;;5013008;28;20096;-66
2023/08/22 02:49:44;;;;;;;17.75;10.60;;;17.30;99.90;;;;;;5032227;28;20091;-67
2023/08/22 02:52:10;;;;;;;18.83;10.63;;;17.40;99.90;;;;;;5032363;28;20041;-67
2023/08/22 02:54:36;;;;;;;11.65;8.98;;;17.30;99.90;;;;;;5019676;28;20103;-67
2023/08/22 02:57:02;;;;;;;12.23;9.07;;;17.30;99.90;;;;;;5030212;28;20037;-67
2023/08/22 02:59:28;;;;;;;14.18;8.35;;;17.30;99.90;;;;;;5013984;28;20565;-67
2023/08/22 03:01:53;;;;;;;11.18;8.73;;;17.20;99.90;;;;;;5027735;28;20046;-68
2023/08/22 03:04:19;;;;;;;13.65;9.50;;;17.10;99.90;;;;;;5031347;28;20029;-68
2023/08/22 03:06:44;;;;;;;11.10;8.88;;;17.10;99.90;;;;;;5014365;28;20373;-68
2023/08/22 03:09:10;;;;;;;13.38;9.05;;;17.10;99.90;;;;;;5031750;28;20518;-68
2023/08/22 03:11:37;;;;;;;7.53;5.65;;;17.10;99.90;;;;;;5023571;28;20159;-68
2023/08/22 03:14:03;;;;;;;8.20;5.88;;;16.90;99.90;;;;;;4998413;28;20080;-68
2023/08/22 03:16:28;;;;;;;14.27;7.75;;;16.80;99.90;;;;;;5007391;28;20092;-68
2023/08/22 03:18:54;;;;;;;10.93;7.47;;;16.80;99.90;;;;;;5006554;28;20069;-68
2023/08/22 03:21:20;;;;;;;10.07;7.40;;;16.70;99.90;;;;;;5026832;28;20029;-68
2023/08/22 03:23:45;;;;;;;9.82;8.15;;;16.70;99.90;;;;;;5021886;28;20096;-67
2023/08/22 03:26:11;;;;;;;10.35;8.02;;;16.70;99.90;;;;;;5008998;28;20048;-67
2023/08/22 03:28:37;;;;;;;11.40;8.45;;;16.60;99.90;;;;;;4995762;28;20100;-67
2023/08/22 03:31:03;;;;;;;13.82;10.70;;;16.60;99.90;;;;;;5026917;28;20034;-67
2023/08/22 03:33:30;;;;;;;12.93;9.48;;;16.60;99.90;;;;;;5015775;28;20037;-68
2023/08/22 03:35:57;;;;;;;11.30;7.90;;;16.60;99.90;;;;;;5000069;28;20091;-67
2023/08/22 03:38:23;;;;;;;8.32;6.28;;;16.50;99.90;;;;;;5023448;28;20435;-67
2023/08/22 03:40:51;;;;;;;8.85;5.65;;;16.50;99.90;;;;;;5029775;28;20044;-67
2023/08/22 03:43:18;;;;;;;5.80;5.20;;;16.50;99.90;;;;;;5030875;28;20041;-68
2023/08/22 03:45:45;;;;;;;8.18;6.60;;;16.50;99.90;;;;;;5019540;28;20040;-67
2023/08/22 03:48:10;;;;;;;5.22;4.72;;;16.50;99.90;;;;;;5009662;28;20048;-67
2023/08/22 03:50:39;;;;;;;6.90;5.50;;;16.50;99.90;;;;;;5011877;28;20108;-67
2023/08/22 03:53:05;;;;;;;6.68;5.60;;;16.50;99.90;;;;;;5018045;28;20069;-67
2023/08/22 03:55:30;;;;;;;9.15;6.90;;;16.50;99.90;;;;;;5012961;28;20127;-67
2023/08/22 03:58:00;;;;;;;10.10;7.85;;;16.40;99.90;;;;;;5011071;28;20152;-67
2023/08/22 04:00:26;;;;;;;30.58;8.18;;;16.30;99.90;;;;;;5001397;28;20051;-67
2023/08/22 04:02:56;;;;;;;53.90;7.47;;;16.40;99.90;;;;;;5009312;28;20046;-67
2023/08/22 04:05:22;;;;;;;9.70;7.38;;;16.40;99.90;;;;;;5008764;28;20100;-67
2023/08/22 04:07:49;;;;;;;9.77;7.82;;;16.30;99.90;;;;;;5003469;28;20497;-67
2023/08/22 04:10:15;;;;;;;14.90;10.45;;;16.30;99.90;;;;;;5021771;28;20029;-67
2023/08/22 04:12:40;;;;;;;15.38;11.32;;;16.30;99.90;;;;;;5020075;28;20057;-66
2023/08/22 04:15:07;;;;;;;19.60;12.90;;;16.30;99.90;;;;;;5025707;28;20083;-67
2023/08/22 04:17:33;;;;;;;20.60;12.52;;;16.20;99.90;;;;;;5011695;28;20046;-67
2023/08/22 04:19:58;;;;;;;19.00;14.43;;;16.30;99.90;;;;;;5013444;28;20049;-67
2023/08/22 04:22:24;;;;;;;20.77;15.35;;;16.30;99.90;;;;;;5014397;28;20034;-67
2023/08/22 04:24:49;;;;;;;16.98;13.30;;;16.30;99.90;;;;;;5015661;28;20048;-67
2023/08/22 04:27:15;;;;;;;16.20;13.80;;;16.30;99.90;;;;;;5011795;28;20116;-67
2023/08/22 04:29:41;;;;;;;16.23;12.98;;;16.20;99.90;;;;;;5014665;28;20091;-67
2023/08/22 04:32:06;;;;;;;17.33;13.40;;;16.20;99.90;;;;;;5033175;28;20045;-67
2023/08/22 04:34:32;;;;;;;17.98;13.93;;;16.10;99.90;;;;;;5009404;28;20069;-68
2023/08/22 04:36:57;;;;;;;20.30;10.48;;;16.10;99.90;;;;;;5023479;28;20040;-68
2023/08/22 04:39:23;;;;;;;16.05;10.13;;;16.10;99.90;;;;;;5016120;28;20038;-67
2023/08/22 04:41:50;;;;;;;11.15;10.00;;;16.00;99.90;;;;;;5011436;28;20042;-67
2023/08/22 04:44:16;;;;;;;67.95;9.90;;;16.00;99.90;;;;;;5008504;28;20048;-67
2023/08/22 04:46:42;;;;;;;22.00;6.70;;;16.00;99.90;;;;;;5043310;28;20053;-67
2023/08/22 04:49:07;;;;;;;63.25;8.27;;;15.80;99.90;;;;;;5054225;28;20032;-67
2023/08/22 04:51:33;;;;;;;12.82;10.45;;;15.80;99.90;;;;;;5018332;28;20454;-67
2023/08/22 04:53:58;;;;;;;144.68;12.48;;;15.70;99.90;;;;;;5022352;28;20579;-67
2023/08/22 04:56:24;;;;;;;42.10;12.20;;;15.70;99.90;;;;;;5015760;28;20039;-67
2023/08/22 04:58:52;;;;;;;18.65;14.10;;;15.70;99.90;;;;;;5010710;28;20045;-67
2023/08/22 05:01:17;;;;;;;17.05;13.90;;;15.70;99.90;;;;;;5005917;28;20144;-67
2023/08/22 05:03:43;;;;;;;21.20;17.50;;;15.70;99.90;;;;;;5033910;28;20492;-68
2023/08/22 05:06:09;;;;;;;61.17;15.25;;;15.70;99.90;;;;;;5031370;28;20060;-67
2023/08/22 05:08:34;;;;;;;19.65;14.82;;;15.80;99.90;;;;;;5011421;28;20063;-67
2023/08/22 05:11:00;;;;;;;17.17;14.40;;;15.70;99.90;;;;;;5034607;28;20649;-67
2023/08/22 05:13:25;;;;;;;17.35;14.68;;;15.80;99.90;;;;;;5028024;28;20037;-68
2023/08/22 05:15:51;;;;;;;19.65;13.82;;;15.80;99.90;;;;;;5012725;28;20092;-67
2023/08/22 05:18:17;;;;;;;19.50;15.25;;;15.80;99.90;;;;;;5019301;28;20037;-67
2023/08/22 05:20:42;;;;;;;12.45;10.85;;;15.80;99.90;;;;;;5033562;28;20061;-67
2023/08/22 05:23:08;;;;;;;13.15;9.77;;;15.70;99.90;;;;;;5033915;28;20504;-66
2023/08/22 05:25:34;;;;;;;26.42;9.77;;;15.80;99.90;;;;;;5023630;28;20086;-67
2023/08/22 05:27:59;;;;;;;15.20;9.45;;;15.80;99.90;;;;;;5023017;28;20065;-68
2023/08/22 05:30:26;;;;;;;11.77;10.57;;;15.80;99.90;;;;;;5015857;28;20511;-67
2023/08/22 05:32:51;;;;;;;13.85;11.68;;;15.90;99.90;;;;;;5012047;28;20523;-67
2023/08/22 05:35:17;;;;;;;14.60;12.82;;;16.00;99.90;;;;;;5015334;28;20049;-67
2023/08/22 05:37:43;;;;;;;23.05;17.25;;;16.10;99.90;;;;;;5012393;28;20052;-67
2023/08/22 05:40:09;;;;;;;19.05;16.27;;;16.20;99.90;;;;;;5013258;28;20564;-67
2023/08/22 05:42:35;;;;;;;23.77;16.70;;;16.40;99.90;;;;;;5025078;28;20403;-66
2023/08/22 05:45:00;;;;;;;23.42;18.42;;;16.50;99.90;;;;;;4998217;28;20041;-67
2023/08/22 05:47:26;;;;;;;23.52;18.65;;;16.70;99.90;;;;;;5012273;28;20399;-67
2023/08/22 05:49:52;;;;;;;24.30;18.60;;;16.80;99.90;;;;;;5021124;28;20065;-67
2023/08/22 05:52:19;;;;;;;24.77;18.08;;;16.90;99.90;;;;;;5027996;28;20487;-68
2023/08/22 05:54:44;;;;;;;26.02;17.65;;;17.00;99.90;;;;;;5013801;28;20135;-68
2023/08/22 05:57:10;;;;;;;18.48;16.02;;;17.00;99.90;;;;;;5004011;28;20128;-68
2023/08/22 05:59:37;;;;;;;23.67;18.13;;;17.10;99.90;;;;;;5020277;28;20427;-67
2023/08/22 06:02:02;;;;;;;23.70;18.30;;;17.10;99.90;;;;;;5025297;28;20507;-68
2023/08/22 06:04:28;;;;;;;26.45;18.63;;;17.20;99.90;;;;;;5024380;28;20029;-68
2023/08/22 06:06:53;;;;;;;26.45;18.10;;;17.30;99.90;;;;;;4998253;28;20080;-68
2023/08/22 06:09:20;;;;;;;23.48;18.52;;;17.40;99.90;;;;;;5008534;28;20037;-68
2023/08/22 06:11:46;;;;;;;22.92;18.67;;;17.40;99.90;;;;;;5032815;28;20033;-68
2023/08/22 06:14:12;;;;;;;26.95;19.33;;;17.60;99.90;;;;;;5021270;28;20033;-68
2023/08/22 06:16:37;;;;;;;30.67;18.67;;;17.80;99.90;;;;;;5013065;28;20041;-69
2023/08/22 06:19:03;;;;;;;24.15;18.67;;;17.90;99.90;;;;;;5032511;28;20367;-69
2023/08/22 06:21:28;;;;;;;24.67;17.65;;;18.00;99.90;;;;;;5028674;28;20120;-69
2023/08/22 06:23:54;;;;;;;25.98;20.10;;;18.20;99.90;;;;;;5014890;28;20091;-69
2023/08/22 06:26:20;;;;;;;26.88;18.23;;;18.40;99.90;;;;;;5008047;28;20046;-67
2023/08/22 06:28:46;;;;;;;22.77;17.40;;;18.50;99.90;;;;;;5022881;28;20090;-68
2023/08/22 06:31:12;;;;;;;29.23;17.63;;;18.60;99.90;;;;;;5031813;28;20041;-68
2023/08/22 06:33:37;;;;;;;23.88;18.30;;;18.70;99.90;;;;;;5014496;28;20052;-68
2023/08/22 06:36:03;;;;;;;28.92;19.65;;;18.80;99.90;;;;;;5018579;28;20148;-68
2023/08/22 06:38:29;;;;;;;29.92;19.50;;;18.90;99.90;;;;;;5011989;28;20042;-69
2023/08/22 06:40:55;;;;;;;26.42;18.52;;;19.00;99.90;;;;;;5012234;28;20408;-68
2023/08/22 06:43:22;;;;;;;27.08;17.35;;;19.10;99.90;;;;;;5031982;28;20075;-68
2023/08/22 06:45:48;;;;;;;26.80;17.55;;;19.20;99.90;;;;;;5028771;28;20586;-69
2023/08/22 06:48:13;;;;;;;24.02;17.65;;;19.30;99.90;;;;;;5006658;28;20125;-68
2023/08/22 06:50:39;;;;;;;27.52;18.00;;;19.40;99.90;;;;;;5027210;28;20037;-69
2023/08/22 06:53:04;;;;;;;25.20;17.25;;;19.40;99.90;;;;;;5014173;28;20037;-69
2023/08/22 06:55:30;;;;;;;20.98;16.00;;;19.50;99.90;;;;;;5005838;28;20052;-69
2023/08/22 06:57:56;;;;;;;19.55;15.18;;;19.60;99.90;;;;;;5012073;28;20042;-69
2023/08/22 07:00:21;;;;;;;21.73;15.80;;;19.60;99.90;;;;;;5025915;28;20060;-69
2023/08/22 07:02:47;;;;;;;19.67;14.60;;;19.70;99.90;;;;;;5009921;28;20532;-69
2023/08/22 07:05:14;;;;;;;20.73;15.00;;;19.70;99.90;;;;;;5031192;28;20103;-69
2023/08/22 07:07:40;;;;;;;18.17;15.00;;;19.70;99.90;;;;;;5031306;28;20080;-69
2023/08/22 07:10:10;;;;;;;20.42;14.45;;;19.80;99.90;;;;;;5026626;28;20072;-69
2023/08/22 07:12:36;;;;;;;19.35;14.25;;;19.80;99.90;;;;;;5001609;28;20033;-68
2023/08/22 07:15:05;;;;;;;20.20;13.20;;;19.90;99.90;;;;;;5021966;28;20137;-68
2023/08/22 07:17:31;;;;;;;19.50;12.80;;;19.90;99.90;;;;;;5013714;28;20492;-68
2023/08/22 07:19:57;;;;;;;18.92;11.48;;;20.00;99.90;;;;;;5009225;28;20053;-68
2023/08/22 07:22:22;;;;;;;19.58;11.70;;;20.10;99.90;;;;;;5019006;28;20072;-68
2023/08/22 07:24:48;;;;;;;14.43;11.27;;;20.20;99.90;;;;;;5011381;28;20076;-68
2023/08/22 07:27:14;;;;;;;18.38;11.38;;;20.20;99.90;;;;;;5031725;28;20038;-68
2023/08/22 07:29:40;;;;;;;16.27;11.02;;;20.30;99.90;;;;;;5025381;28;20034;-68
2023/08/22 07:32:08;;;;;;;16.10;10.57;;;20.40;99.90;;;;;;5022479;28;20049;-68
2023/08/22 07:34:34;;;;;;;17.67;10.57;;;20.40;99.90;;;;;;5027408;28;20351;-68
2023/08/22 07:37:00;;;;;;;20.67;10.07;;;20.50;99.90;;;;;;5025186;28;20416;-68
2023/08/22 07:39:27;;;;;;;13.77;9.32;;;20.60;99.90;;;;;;5014898;28;20076;-69
2023/08/22 07:41:52;;;;;;;17.00;9.25;;;20.60;99.90;;;;;;5010064;28;20042;-69
2023/08/22 07:44:18;;;;;;;9.55;6.57;;;20.80;99.90;;;;;;5012085;28;20072;-69
2023/08/22 07:46:43;;;;;;;9.40;6.45;;;20.90;99.90;;;;;;5009207;28;20053;-68
2023/08/22 07:49:09;;;;;;;12.55;7.15;;;20.90;99.90;;;;;;5023727;28;20147;-68
2023/08/22 07:51:36;;;;;;;14.13;7.25;;;21.00;99.90;;;;;;5030671;28;20407;-68
2023/08/22 07:54:02;;;;;;;12.35;7.82;;;21.10;99.90;;;;;;5009933;28;20465;-68
2023/08/22 07:56:28;;;;;;;10.57;7.97;;;21.10;99.90;;;;;;5009905;28;20077;-68
2023/08/22 07:58:54;;;;;;;9.70;6.80;;;21.10;99.90;;;;;;5012787;28;20080;-69
2023/08/22 08:01:19;;;;;;;10.77;6.03;;;21.20;99.90;;;;;;5013686;28;20045;-68
2023/08/22 08:03:45;;;;;;;8.90;5.55;;;21.30;99.90;;;;;;5019743;28;20033;-68
2023/08/22 08:06:11;;;;;;;7.47;5.38;;;21.50;99.90;;;;;;5030497;28;20451;-69
2023/08/22 08:08:36;;;;;;;8.00;4.95;;;21.50;99.90;;;;;;5004117;28;20634;-69
2023/08/22 08:11:02;;;;;;;8.27;4.78;;;21.70;99.90;;;;;;5006765;28;20038;-68
2023/08/22 08:13:28;;;;;;;8.38;4.50;;;21.70;99.90;;;;;;5029786;28;20042;-68
2023/08/22 08:15:53;;;;;;;7.18;4.70;;;21.80;99.90;;;;;;5019585;28;20496;-68
2023/08/22 08:18:20;;;;;;;6.50;3.60;;;21.90;99.90;;;;;;5026686;28;20033;-68
2023/08/22 08:20:46;;;;;;;8.27;3.72;;;21.90;99.90;;;;;;5022998;28;20041;-68
2023/08/22 08:23:12;;;;;;;8.25;3.72;;;22.10;99.90;;;;;;5019404;28;20037;-68
2023/08/22 08:25:38;;;;;;;4.68;3.10;;;22.10;99.90;;;;;;5011130;28;20051;-68
2023/08/22 08:28:07;;;;;;;5.45;3.00;;;22.10;99.90;;;;;;5029000;28;20037;-68
2023/08/22 08:30:33;;;;;;;4.20;2.42;;;22.20;99.90;;;;;;5029214;28;20038;-69
2023/08/22 08:33:01;;;;;;;5.93;2.58;;;22.20;99.90;;;;;;5019423;28;20496;-68
2023/08/22 08:35:27;;;;;;;8.15;2.40;;;22.20;99.90;;;;;;5003100;28;20042;-69
2023/08/22 08:37:53;;;;;;;3.55;2.20;;;22.30;99.90;;;;;;5014794;28;20042;-68
2023/08/22 08:40:19;;;;;;;7.43;2.78;;;22.30;99.90;;;;;;5043535;28;20087;-68
2023/08/22 08:42:45;;;;;;;5.28;2.58;;;22.30;99.90;;;;;;5030853;28;20042;-68
2023/08/22 08:45:14;;;;;;;7.05;2.58;;;22.20;99.90;;;;;;5024502;28;20034;-68
2023/08/22 08:47:41;;;;;;;5.45;2.70;;;22.30;99.90;;;;;;5026243;28;20046;-69
2023/08/22 08:50:07;;;;;;;5.65;2.40;;;22.30;99.90;;;;;;5012972;28;20049;-68
2023/08/22 08:52:33;;;;;;;3.35;2.80;;;22.30;99.90;;;;;;5005085;28;20066;-68
2023/08/22 08:54:59;;;;;;;3.55;2.00;;;22.50;99.90;;;;;;5022512;28;20077;-68
2023/08/22 08:57:26;;;;;;;4.85;2.05;;;22.50;99.90;;;;;;5027533;28;20037;-68
2023/08/22 08:59:53;;;;;;;8.05;2.35;;;22.50;99.90;;;;;;5014424;28;20107;-68
2023/08/22 09:02:19;;;;;;;3.08;2.20;;;22.50;99.90;;;;;;5011420;28;20077;-68
2023/08/22 09:04:45;;;;;;;6.80;2.38;;;22.50;99.90;;;;;;5027003;28;20133;-68
2023/08/22 09:07:11;;;;;;;5.18;2.35;;;22.50;99.90;;;;;;5026971;28;20556;-69
2023/08/22 09:09:36;;;;;;;4.38;2.38;;;22.50;99.90;;;;;;5023327;28;20037;-68
2023/08/22 09:12:07;;;;;;;4.70;2.40;;;22.50;99.90;;;;;;5027303;28;20034;-68
2023/08/22 09:14:33;;;;;;;5.95;2.63;;;22.50;99.90;;;;;;5030042;28;20069;-68
2023/08/22 09:17:01;;;;;;;6.78;3.00;;;22.50;99.90;;;;;;5033436;28;20037;-68
2023/08/22 09:19:33;;;;;;;6.40;2.40;;;22.40;99.90;;;;;;5025401;28;20380;-68
2023/08/22 09:22:03;;;;;;;7.32;2.80;;;22.50;99.90;;;;;;5038168;28;20518;-68
2023/08/22 09:24:30;;;;;;;6.30;2.55;;;22.40;99.90;;;;;;5014137;28;20041;-69
2023/08/22 09:26:55;;;;;;;8.38;2.60;;;22.40;99.90;;;;;;5018034;28;20041;-68
2023/08/22 09:29:28;;;;;;;5.53;2.10;;;22.30;99.90;;;;;;5021226;28;20103;-68
2023/08/22 09:32:01;;;;;;;4.72;1.95;;;22.30;99.90;;;;;;5032500;28;20439;-67
2023/08/22 09:34:26;;;;;;;3.35;1.90;;;22.10;99.90;;;;;;5031614;28;20140;-67
2023/08/22 09:36:54;;;;;;;3.60;1.88;;;22.10;99.90;;;;;;5023292;28;20686;-68
2023/08/22 09:39:20;;;;;;;3.92;2.20;;;22.00;99.90;;;;;;5027513;28;20053;-68
2023/08/22 09:41:57;;;;;;;4.55;2.28;;;22.10;99.90;;;;;;5011865;28;20226;-68
2023/08/22 09:44:25;;;;;;;5.85;2.30;;;22.20;99.90;;;;;;5009416;28;20042;-69
2023/08/22 09:46:51;;;;;;;4.35;2.45;;;22.30;99.90;;;;;;5023040;28;20052;-69
2023/08/22 09:49:18;;;;;;;5.30;2.47;;;22.50;99.90;;;;;;5011414;28;20037;-68
2023/08/22 09:51:45;;;;;;;4.15;2.83;;;22.50;99.90;;;;;;5029188;28;20101;-68
2023/08/22 09:54:12;;;;;;;7.85;3.05;;;22.60;99.90;;;;;;5028318;28;20042;-67
2023/08/22 09:56:38;;;;;;;9.43;3.55;;;22.80;99.90;;;;;;5013331;28;20046;-68
2023/08/22 09:59:04;;;;;;;6.57;3.28;;;22.80;99.90;;;;;;5016137;28;20038;-68
2023/08/22 10:01:33;;;;;;;6.10;3.05;;;22.90;99.90;;;;;;5032204;28;20677;-69
2023/08/22 10:04:03;;;;;;;6.78;3.28;;;23.20;99.90;;;;;;5014959;28;20046;-68
2023/08/22 10:06:31;;;;;;;6.07;3.40;;;23.20;99.90;;;;;;5028821;28;20056;-69
2023/08/22 10:08:57;;;;;;;6.13;2.83;;;23.10;99.90;;;;;;5012634;28;20049;-68
2023/08/22 10:11:27;;;;;;;7.38;2.90;;;23.10;99.90;;;;;;5032692;28;20033;-68
2023/08/22 10:13:53;;;;;;;6.97;3.20;;;23.20;99.90;;;;;;5015549;28;20041;-67
2023/08/22 10:16:20;;;;;;;5.45;3.13;;;23.30;99.90;;;;;;5024069;28;20029;-68
2023/08/22 10:18:45;;;;;;;5.88;3.28;;;23.40;99.90;;;;;;5015441;28;20052;-68
2023/08/22 10:21:11;;;;;;;5.15;2.80;;;23.60;99.90;;;;;;5039581;28;20038;-67
2023/08/22 10:23:52;;;;;;;5.43;2.42;;;23.70;99.90;;;;;;5027374;28;20031;-67
2023/08/22 10:26:21;;;;;;;5.30;2.55;;;23.80;99.90;;;;;;5016523;28;20053;-67
2023/08/22 10:29:13;;;;;;;5.97;2.40;;;23.70;99.90;;;;;;5011527;28;20038;-68
2023/08/22 10:32:00;;;;;;;4.13;2.28;;;23.50;99.80;;;;;;5008742;28;20041;-69
2023/08/22 10:34:46;;;;;;;7.97;2.67;;;23.50;99.90;;;;;;4997480;28;20066;-69
2023/08/22 10:37:16;;;;;;;3.83;2.75;;;23.60;99.90;;;;;;4974729;28;20056;-69
2023/08/22 10:39:43;;;;;;;6.18;2.70;;;23.80;99.90;;;;;;5026173;28;20514;-69
2023/08/22 10:42:20;;;;;;;7.20;2.80;;;24.00;99.90;;;;;;5026759;28;20480;-69
2023/08/22 10:44:49;;;;;;;4.88;2.92;;;24.10;99.90;;;;;;5021495;28;20099;-69
2023/08/22 10:47:18;;;;;;;4.72;2.55;;;24.20;99.90;;;;;;5016280;28;20479;-69
2023/08/22 10:49:48;;;;;;;3.88;2.55;;;24.40;99.90;;;;;;5005066;28;20503;-69
2023/08/22 10:52:15;;;;;;;5.35;2.67;;;24.60;99.90;;;;;;5014216;28;20042;-69
2023/08/22 10:55:05;;;;;;;4.25;2.10;;;24.50;99.90;;;;;;5014810;28;20050;-69
2023/08/22 10:57:32;;;;;;;4.63;2.00;;;24.40;98.40;;;;;;5010920;28;20081;-69
2023/08/22 11:00:13;;;;;;;5.20;1.92;;;24.30;99.90;;;;;;5014444;28;20551;-68
2023/08/22 11:02:42;;;;;;;4.22;1.90;;;24.30;99.50;;;;;;5029091;28;20033;-68
2023/08/22 11:05:12;;;;;;;2.83;1.20;;;24.30;99.90;;;;;;5028665;28;20052;-68
2023/08/22 11:07:48;;;;;;;1.88;1.30;;;24.20;98.90;;;;;;5015949;28;20042;-69
2023/08/22 11:10:24;;;;;;;2.50;1.15;;;23.90;98.30;;;;;;5006206;28;20046;-67
2023/08/22 11:12:53;;;;;;;2.63;1.08;;;23.70;97.80;;;;;;5007639;28;20040;-68
2023/08/22 11:15:19;;;;;;;1.55;1.02;;;23.60;98.70;;;;;;5016790;28;20075;-68
2023/08/22 11:17:49;;;;;;;4.38;1.35;;;23.80;98.80;;;;;;5024982;28;20037;-69
2023/08/22 11:20:17;;;;;;;2.75;1.50;;;23.70;97.80;;;;;;5028416;28;20049;-68
2023/08/22 11:22:43;;;;;;;3.25;1.60;;;23.80;98.20;;;;;;4998879;28;20077;-68
2023/08/22 11:25:11;;;;;;;4.97;1.75;;;23.90;98.40;;;;;;4992904;28;20044;-69
2023/08/22 11:27:38;;;;;;;5.95;1.80;;;24.00;98.10;;;;;;5007555;28;20034;-69
2023/08/22 11:30:04;;;;;;;2.85;1.40;;;24.20;98.00;;;;;;5012132;28;20104;-69
2023/08/22 11:32:35;;;;;;;5.03;1.48;;;24.30;97.90;;;;;;5028276;28;20063;-69
2023/08/22 11:35:05;;;;;;;5.22;1.70;;;24.10;98.00;;;;;;5013439;28;20120;-68
2023/08/22 11:37:33;;;;;;;6.55;1.80;;;24.20;98.10;;;;;;5025775;28;20080;-69
2023/08/22 11:40:00;;;;;;;3.65;1.80;;;24.30;97.90;;;;;;5021271;28;20104;-68
2023/08/22 11:42:29;;;;;;;3.00;1.38;;;24.30;98.10;;;;;;5013528;28;20120;-69
2023/08/22 11:45:04;;;;;;;4.00;1.48;;;24.20;98.30;;;;;;5012088;28;20042;-69
2023/08/22 11:47:41;;;;;;;3.25;1.70;;;24.10;97.70;;;;;;5010260;28;20046;-68
2023/08/22 11:50:10;;;;;;;2.40;1.30;;;24.00;97.30;;;;;;5018708;28;20381;-68
2023/08/22 11:52:40;;;;;;;2.25;1.20;;;24.10;97.60;;;;;;5009957;28;20029;-68
2023/08/22 11:55:07;;;;;;;4.75;1.35;;;24.30;97.80;;;;;;5010106;28;20493;-68
2023/08/22 11:57:39;;;;;;;1.83;1.10;;;24.30;97.50;;;;;;5023759;28;20143;-69
2023/08/22 12:00:08;;;;;;;3.72;1.38;;;24.40;96.90;;;;;;5023371;28;20487;-68
2023/08/22 12:02:35;;;;;;;2.53;1.30;;;24.50;97.30;;;;;;5031333;28;20037;-68
2023/08/22 12:05:01;;;;;;;3.72;1.55;;;24.60;96.90;;;;;;5002302;28;20080;-69
2023/08/22 12:07:26;;;;;;;2.50;1.45;;;24.70;97.20;;;;;;5026951;28;20046;-68
2023/08/22 12:09:59;;;;;;;3.97;1.40;;;24.80;96.90;;;;;;5030811;28;20049;-68
2023/08/22 12:12:25;;;;;;;2.92;1.48;;;24.90;96.40;;;;;;5009610;28;20057;-68
2023/08/22 12:14:50;;;;;;;4.50;1.40;;;24.90;96.30;;;;;;5015013;28;20038;-68
2023/08/22 12:17:16;;;;;;;3.10;1.25;;;24.90;96.20;;;;;;5009642;28;20042;-69
2023/08/22 12:19:45;;;;;;;1.55;1.00;;;25.00;96.40;;;;;;5011364;28;20041;-69
2023/08/22 12:22:11;;;;;;;6.20;1.40;;;25.10;96.20;;;;;;5000572;28;20050;-69
2023/08/22 12:24:36;;;;;;;3.38;1.10;;;25.20;96.20;;;;;;5012826;28;20041;-69
2023/08/22 12:27:02;;;;;;;2.13;1.23;;;25.20;95.80;;;;;;5022845;28;20496;-69
2023/08/22 12:29:28;;;;;;;3.47;1.35;;;25.30;95.50;;;;;;5034716;28;20541;-69
2023/08/22 12:31:53;;;;;;;4.47;1.00;;;25.20;95.00;;;;;;5032421;28;20037;-68
2023/08/22 12:34:19;;;;;;;2.75;1.02;;;25.30;95.20;;;;;;5034521;28;20045;-68
2023/08/22 12:36:45;;;;;;;2.03;1.05;;;25.30;95.20;;;;;;5034715;28;20045;-68